Time;durP1;ratioP1;P1;durP2;ratioP2;P2;SDS_P1;SDS_P2;PMS_P1;PMS_P2;Temp;Humidity;BMP_temperature;BMP_pressure;BME280_temperature;BME280_humidity;BME280_pressure;Samples;Min_cycle;Max_cycle;Signal;HPM_P1;HPM_P2
2022/10/18 00:02:01;;;;;;;30.13;16.30;;;;;;;;;;5094672;28;20032;-57
2022/10/18 00:04:26;;;;;;;31.40;15.75;;;;;;;;;;5098405;28;20051;-58
2022/10/18 00:06:51;;;;;;;27.35;15.55;;;;;;;;;;5093203;28;20019;-58
2022/10/18 00:09:17;;;;;;;30.02;15.52;;;;;;;;;;5094075;28;20504;-58
2022/10/18 00:11:42;;;;;;;32.13;15.35;;;;;;;;;;5098205;28;20023;-57
2022/10/18 00:14:07;;;;;;;26.73;13.82;;;;;;;;;;5087968;28;20027;-57
2022/10/18 00:16:32;;;;;;;25.02;13.95;;;;;;;;;;5094412;28;20085;-57
2022/10/18 00:18:58;;;;;;;26.23;14.48;;;;;;;;;;5077041;28;20028;-58
2022/10/18 00:21:23;;;;;;;22.40;13.18;;;;;;;;;;5082420;28;20026;-57
2022/10/18 00:23:49;;;;;;;22.58;14.13;;;;;;;;;;5087790;28;20149;-57
2022/10/18 00:26:15;;;;;;;33.20;16.42;;;;;;;;;;5087448;28;20090;-56
2022/10/18 00:28:40;;;;;;;21.65;13.88;;;;;;;;;;5082255;28;20024;-56
2022/10/18 00:31:16;;;;;;;38.50;16.35;;;;;;;;;;5085346;28;20306;-56
2022/10/18 00:33:41;;;;;;;31.63;14.85;;;;;;;;;;5090975;28;20043;-57
2022/10/18 00:36:08;;;;;;;33.78;17.75;;;;;;;;;;5082874;28;20458;-57
2022/10/18 00:38:33;;;;;;;28.02;17.05;;;;;;;;;;5083155;28;20431;-57
2022/10/18 00:40:58;;;;;;;30.80;16.92;;;;;;;;;;5086321;28;20016;-57
2022/10/18 00:43:23;;;;;;;31.05;17.83;;;;;;;;;;5091045;28;20024;-56
2022/10/18 00:45:49;;;;;;;29.83;16.23;;;;;;;;;;5091287;28;20043;-57
2022/10/18 00:48:14;;;;;;;31.88;17.33;;;;;;;;;;5094482;28;20020;-57
2022/10/18 00:50:39;;;;;;;28.08;17.58;;;;;;;;;;5084768;28;20419;-57
2022/10/18 00:53:06;;;;;;;34.05;18.05;;;;;;;;;;5094701;28;20024;-57
2022/10/18 00:55:31;;;;;;;34.75;18.15;;;;;;;;;;5091536;28;20043;-57
2022/10/18 00:57:57;;;;;;;36.80;19.90;;;;;;;;;;5087121;28;20526;-58
2022/10/18 01:00:22;;;;;;;31.42;19.60;;;;;;;;;;5092696;28;20019;-57
2022/10/18 01:02:47;;;;;;;40.00;20.13;;;;;;;;;;5093333;28;20047;-57
2022/10/18 01:05:13;;;;;;;40.78;22.35;;;;;;;;;;5095054;28;20031;-57
2022/10/18 01:07:50;;;;;;;46.08;24.08;;;;;;;;;;5088517;28;20541;-57
2022/10/18 01:10:15;;;;;;;42.78;22.30;;;;;;;;;;5065024;28;20069;-57
2022/10/18 01:12:46;;;;;;;53.53;25.30;;;;;;;;;;5081106;28;20032;-57
2022/10/18 01:15:14;;;;;;;51.08;24.60;;;;;;;;;;5091187;28;20016;-58
2022/10/18 01:17:39;;;;;;;42.92;24.80;;;;;;;;;;5074067;28;20033;-56
2022/10/18 01:20:04;;;;;;;52.55;25.13;;;;;;;;;;5087777;28;20016;-57
2022/10/18 01:22:35;;;;;;;47.83;23.77;;;;;;;;;;5088812;28;20042;-57
2022/10/18 01:25:19;;;;;;;49.25;23.58;;;;;;;;;;5091708;28;20081;-57
2022/10/18 01:27:47;;;;;;;41.13;22.48;;;;;;;;;;5083117;28;20133;-57
2022/10/18 01:30:12;;;;;;;45.83;23.50;;;;;;;;;;5088556;28;20065;-57
2022/10/18 01:32:42;;;;;;;43.38;22.10;;;;;;;;;;5089947;28;20016;-57
2022/10/18 01:35:09;;;;;;;42.50;23.03;;;;;;;;;;5093176;28;20031;-57
2022/10/18 01:37:34;;;;;;;53.67;24.45;;;;;;;;;;5083707;28;20299;-57
2022/10/18 01:39:59;;;;;;;49.38;24.02;;;;;;;;;;5096587;28;20016;-57
2022/10/18 01:42:25;;;;;;;38.05;20.85;;;;;;;;;;5089292;28;20047;-57
2022/10/18 01:44:51;;;;;;;32.80;20.60;;;;;;;;;;5090865;28;20012;-57
2022/10/18 01:47:16;;;;;;;40.35;20.48;;;;;;;;;;5091686;28;20386;-57
2022/10/18 01:49:41;;;;;;;47.25;21.02;;;;;;;;;;5086805;28;20055;-57
2022/10/18 01:52:08;;;;;;;35.88;20.45;;;;;;;;;;5091525;28;20035;-56
2022/10/18 01:54:34;;;;;;;39.58;22.15;;;;;;;;;;5080056;28;20016;-56
2022/10/18 01:57:01;;;;;;;40.17;22.08;;;;;;;;;;5091996;28;20032;-57
2022/10/18 01:59:32;;;;;;;40.58;20.90;;;;;;;;;;5087693;28;20077;-57
2022/10/18 02:02:03;;;;;;;43.30;23.45;;;;;;;;;;5090430;28;20020;-57
2022/10/18 02:04:28;;;;;;;44.35;23.08;;;;;;;;;;5086014;28;20036;-57
2022/10/18 02:06:56;;;;;;;43.45;23.80;;;;;;;;;;5088251;28;20077;-57
2022/10/18 02:09:29;;;;;;;47.58;23.70;;;;;;;;;;5087020;28;20016;-56
2022/10/18 02:11:54;;;;;;;49.10;23.58;;;;;;;;;;5093111;28;20074;-57
2022/10/18 02:14:20;;;;;;;48.70;23.55;;;;;;;;;;5084297;28;20475;-57
2022/10/18 02:16:49;;;;;;;47.58;23.65;;;;;;;;;;5063582;28;20048;-57
2022/10/18 02:19:16;;;;;;;37.03;19.90;;;;;;;;;;5075261;28;20012;-57
2022/10/18 02:21:42;;;;;;;49.85;23.88;;;;;;;;;;5084776;28;20058;-57
2022/10/18 02:24:07;;;;;;;48.13;25.05;;;;;;;;;;5085970;28;20443;-56
2022/10/18 02:26:32;;;;;;;41.50;23.02;;;;;;;;;;5095290;28;20023;-57
2022/10/18 02:28:58;;;;;;;47.33;24.55;;;;;;;;;;5096156;28;20024;-57
2022/10/18 02:31:27;;;;;;;48.28;22.70;;;;;;;;;;5089596;28;20107;-57
2022/10/18 02:33:54;;;;;;;51.10;23.02;;;;;;;;;;5087602;28;20083;-57
2022/10/18 02:36:26;;;;;;;43.00;22.80;;;;;;;;;;5089537;28;20042;-57
2022/10/18 02:38:53;;;;;;;44.03;24.17;;;;;;;;;;5089365;28;20027;-57
2022/10/18 02:41:25;;;;;;;51.17;23.52;;;;;;;;;;5082381;28;20133;-57
2022/10/18 02:43:50;;;;;;;51.90;25.48;;;;;;;;;;5079011;28;20017;-57
2022/10/18 02:46:15;;;;;;;59.17;25.45;;;;;;;;;;5086879;28;20020;-57
2022/10/18 02:48:40;;;;;;;58.15;26.60;;;;;;;;;;5074693;28;20020;-57
2022/10/18 02:51:05;;;;;;;56.10;27.20;;;;;;;;;;5086773;28;20047;-57
2022/10/18 02:53:31;;;;;;;54.70;25.65;;;;;;;;;;5094678;28;20015;-57
2022/10/18 02:55:56;;;;;;;63.95;26.52;;;;;;;;;;5088601;28;20063;-57
2022/10/18 02:58:21;;;;;;;52.92;24.48;;;;;;;;;;5090379;28;20126;-58
2022/10/18 03:00:48;;;;;;;56.95;26.00;;;;;;;;;;5084178;28;20055;-57
2022/10/18 03:03:13;;;;;;;49.65;23.80;;;;;;;;;;5092351;28;20032;-57
2022/10/18 03:05:38;;;;;;;55.30;25.02;;;;;;;;;;5075738;28;20033;-57
2022/10/18 03:08:03;;;;;;;53.42;23.65;;;;;;;;;;5077975;28;20013;-57
2022/10/18 03:10:29;;;;;;;53.45;24.60;;;;;;;;;;5079535;28;20021;-57
2022/10/18 03:12:54;;;;;;;48.05;23.58;;;;;;;;;;5083407;28;20016;-57
2022/10/18 03:15:19;;;;;;;44.55;22.77;;;;;;;;;;5081813;28;20428;-57
2022/10/18 03:17:44;;;;;;;55.25;25.45;;;;;;;;;;5086657;28;20020;-58
2022/10/18 03:20:10;;;;;;;45.53;21.38;;;;;;;;;;5091014;28;20094;-58
2022/10/18 03:22:35;;;;;;;46.83;22.10;;;;;;;;;;5093018;28;20090;-58
2022/10/18 03:25:00;;;;;;;53.10;21.98;;;;;;;;;;5090124;28;20478;-58
2022/10/18 03:27:26;;;;;;;46.80;22.00;;;;;;;;;;5076162;28;20153;-60
2022/10/18 03:29:51;;;;;;;45.42;21.40;;;;;;;;;;5088071;28;20059;-57
2022/10/18 03:32:16;;;;;;;45.03;22.50;;;;;;;;;;5090634;28;20024;-57
2022/10/18 03:34:41;;;;;;;49.92;22.27;;;;;;;;;;5085161;28;20024;-58
2022/10/18 03:37:07;;;;;;;39.97;20.27;;;;;;;;;;5104116;27;20384;-57
2022/10/18 03:39:32;;;;;;;47.08;22.67;;;;;;;;;;5092273;28;20119;-58
2022/10/18 03:41:57;;;;;;;44.67;21.95;;;;;;;;;;5088947;28;20386;-58
2022/10/18 03:44:22;;;;;;;39.90;19.98;;;;;;;;;;5092889;28;20028;-57
2022/10/18 03:46:48;;;;;;;49.38;23.38;;;;;;;;;;5080901;28;20044;-57
2022/10/18 03:49:13;;;;;;;41.00;21.65;;;;;;;;;;5094570;28;20433;-57
2022/10/18 03:51:38;;;;;;;45.15;21.55;;;;;;;;;;5089387;28;20754;-57
2022/10/18 03:54:03;;;;;;;35.25;18.98;;;;;;;;;;5080302;28;20363;-58
2022/10/18 03:56:29;;;;;;;38.80;21.42;;;;;;;;;;5089059;28;20027;-57
2022/10/18 03:58:55;;;;;;;40.72;19.45;;;;;;;;;;5094307;28;20034;-58
2022/10/18 04:01:21;;;;;;;34.28;18.17;;;;;;;;;;5090393;28;20085;-58
2022/10/18 04:03:46;;;;;;;55.97;20.20;;;;;;;;;;5089505;28;20036;-58
2022/10/18 04:06:12;;;;;;;35.22;19.48;;;;;;;;;;5097069;28;20043;-57
2022/10/18 04:08:37;;;;;;;92.28;19.77;;;;;;;;;;5096436;28;20051;-57
2022/10/18 04:11:07;;;;;;;60.97;18.60;;;;;;;;;;5091387;28;20020;-57
2022/10/18 04:13:32;;;;;;;35.08;18.15;;;;;;;;;;5083985;28;20430;-57
2022/10/18 04:15:58;;;;;;;34.03;19.48;;;;;;;;;;5091389;28;20156;-57
2022/10/18 04:18:23;;;;;;;38.70;18.55;;;;;;;;;;5090166;28;20024;-57
2022/10/18 04:20:48;;;;;;;38.10;18.73;;;;;;;;;;5083941;28;20435;-57
2022/10/18 04:23:13;;;;;;;303.35;23.15;;;;;;;;;;5078689;28;20149;-57
2022/10/18 04:25:39;;;;;;;308.73;21.90;;;;;;;;;;5077902;28;20579;-57
2022/10/18 04:28:04;;;;;;;41.83;18.40;;;;;;;;;;5089621;28;20371;-56
2022/10/18 04:30:29;;;;;;;56.58;20.92;;;;;;;;;;5088017;28;20389;-57
2022/10/18 04:32:54;;;;;;;36.25;17.80;;;;;;;;;;5086877;28;20024;-58
2022/10/18 04:35:23;;;;;;;33.13;17.80;;;;;;;;;;5090452;28;20027;-58
2022/10/18 04:37:48;;;;;;;34.95;16.25;;;;;;;;;;5087924;28;20023;-58
2022/10/18 04:40:13;;;;;;;35.08;16.23;;;;;;;;;;5093292;28;20386;-58
2022/10/18 04:42:39;;;;;;;32.13;16.55;;;;;;;;;;5080323;28;20020;-57
2022/10/18 04:45:04;;;;;;;29.85;15.15;;;;;;;;;;5090338;28;20024;-56
2022/10/18 04:47:29;;;;;;;29.83;14.65;;;;;;;;;;5085230;28;20031;-58
2022/10/18 04:49:55;;;;;;;25.25;13.32;;;;;;;;;;5081238;28;20020;-58
2022/10/18 04:52:20;;;;;;;29.73;14.50;;;;;;;;;;5089768;28;20113;-58
2022/10/18 04:54:45;;;;;;;28.90;14.50;;;;;;;;;;5091520;28;20077;-58
2022/10/18 04:57:10;;;;;;;25.85;14.95;;;;;;;;;;5093443;28;20039;-58
2022/10/18 04:59:36;;;;;;;27.95;14.55;;;;;;;;;;5089786;28;20033;-57
2022/10/18 05:02:02;;;;;;;27.85;15.30;;;;;;;;;;5090912;28;20032;-58
2022/10/18 05:04:27;;;;;;;20.90;12.20;;;;;;;;;;5089290;28;20043;-58
2022/10/18 05:06:52;;;;;;;27.40;14.27;;;;;;;;;;5084395;28;20119;-58
2022/10/18 05:09:18;;;;;;;31.00;16.48;;;;;;;;;;5094628;28;20053;-58
2022/10/18 05:11:43;;;;;;;25.55;15.75;;;;;;;;;;5090792;28;20035;-58
2022/10/18 05:14:09;;;;;;;32.38;16.15;;;;;;;;;;5088429;28;20358;-58
2022/10/18 05:16:35;;;;;;;29.98;15.55;;;;;;;;;;5086988;28;20039;-58
2022/10/18 05:19:00;;;;;;;33.85;16.98;;;;;;;;;;5093056;28;20008;-58
2022/10/18 05:21:25;;;;;;;29.50;17.38;;;;;;;;;;5085445;28;20447;-59
2022/10/18 05:23:53;;;;;;;35.58;18.70;;;;;;;;;;5083428;28;20133;-57
2022/10/18 05:26:18;;;;;;;35.15;17.80;;;;;;;;;;5085058;28;20114;-56
2022/10/18 05:28:44;;;;;;;42.65;16.83;;;;;;;;;;5072028;28;20462;-56
2022/10/18 05:31:09;;;;;;;31.52;16.17;;;;;;;;;;5087961;28;20027;-56
2022/10/18 05:33:35;;;;;;;28.52;16.23;;;;;;;;;;5100311;27;20382;-56
2022/10/18 05:36:00;;;;;;;29.27;16.27;;;;;;;;;;5085135;28;20016;-56
2022/10/18 05:38:25;;;;;;;32.63;16.75;;;;;;;;;;5086276;28;20023;-56
2022/10/18 05:40:50;;;;;;;32.25;15.82;;;;;;;;;;5092371;28;20016;-57
2022/10/18 05:43:18;;;;;;;28.80;15.30;;;;;;;;;;5079369;28;20400;-56
2022/10/18 05:45:47;;;;;;;25.83;13.48;;;;;;;;;;5088601;28;20024;-56
2022/10/18 05:48:12;;;;;;;23.15;12.43;;;;;;;;;;5102330;27;20042;-56
2022/10/18 05:50:38;;;;;;;19.85;10.13;;;;;;;;;;5082495;28;20046;-57
2022/10/18 05:53:03;;;;;;;19.17;9.95;;;;;;;;;;5079017;28;20008;-56
2022/10/18 05:55:28;;;;;;;15.15;8.18;;;;;;;;;;5085048;28;20099;-56
2022/10/18 05:57:53;;;;;;;14.35;7.32;;;;;;;;;;5098796;27;20474;-57
2022/10/18 06:00:19;;;;;;;14.50;7.60;;;;;;;;;;5079280;28;20429;-58
2022/10/18 06:02:44;;;;;;;12.85;6.28;;;;;;;;;;5082024;28;20016;-56
2022/10/18 06:05:09;;;;;;;14.43;6.78;;;;;;;;;;5085646;28;20047;-56
2022/10/18 06:07:34;;;;;;;11.75;6.88;;;;;;;;;;5097096;28;20020;-56
2022/10/18 06:09:59;;;;;;;10.18;5.55;;;;;;;;;;5079395;28;20048;-57
2022/10/18 06:12:25;;;;;;;10.00;5.70;;;;;;;;;;5087529;28;20027;-56
2022/10/18 06:14:50;;;;;;;14.70;5.20;;;;;;;;;;5094099;28;20016;-56
2022/10/18 06:17:15;;;;;;;10.07;5.45;;;;;;;;;;5082853;28;20032;-57
2022/10/18 06:19:43;;;;;;;9.35;4.07;;;;;;;;;;5088251;28;20106;-56
2022/10/18 06:22:08;;;;;;;8.60;3.72;;;;;;;;;;5090085;28;20039;-57
2022/10/18 06:24:34;;;;;;;6.82;3.83;;;;;;;;;;5094668;28;20030;-55
2022/10/18 06:26:59;;;;;;;8.05;4.05;;;;;;;;;;5096232;28;20474;-56
2022/10/18 06:29:24;;;;;;;6.20;3.80;;;;;;;;;;5091880;28;20016;-55
2022/10/18 06:31:49;;;;;;;8.73;3.53;;;;;;;;;;5082990;28;20054;-56
2022/10/18 06:34:15;;;;;;;7.38;4.22;;;;;;;;;;5090525;28;20020;-59
2022/10/18 06:36:40;;;;;;;10.07;4.68;;;;;;;;;;5093482;28;20035;-56
2022/10/18 06:39:05;;;;;;;9.98;4.55;;;;;;;;;;5089122;28;20480;-56
2022/10/18 06:41:30;;;;;;;8.98;4.80;;;;;;;;;;5095612;28;20019;-56
2022/10/18 06:43:57;;;;;;;7.35;4.43;;;;;;;;;;5103111;28;20078;-56
2022/10/18 06:46:22;;;;;;;7.00;4.50;;;;;;;;;;5088030;28;20024;-55
2022/10/18 06:48:48;;;;;;;6.47;4.10;;;;;;;;;;5089712;28;20324;-56
2022/10/18 06:51:14;;;;;;;9.20;4.65;;;;;;;;;;5088718;28;20028;-56
2022/10/18 06:53:39;;;;;;;6.22;3.95;;;;;;;;;;5095776;28;20055;-56
2022/10/18 06:56:05;;;;;;;5.95;4.07;;;;;;;;;;5087197;28;20450;-56
2022/10/18 06:58:30;;;;;;;6.18;3.90;;;;;;;;;;5098851;28;20043;-56
2022/10/18 07:00:56;;;;;;;7.70;3.60;;;;;;;;;;5092775;28;20027;-56
2022/10/18 07:03:21;;;;;;;7.40;3.40;;;;;;;;;;5090416;28;20034;-56
2022/10/18 07:05:47;;;;;;;5.60;3.38;;;;;;;;;;5089218;28;20488;-56
2022/10/18 07:08:12;;;;;;;11.10;3.65;;;;;;;;;;5093683;28;20018;-56
2022/10/18 07:10:37;;;;;;;5.82;3.33;;;;;;;;;;5094243;28;20057;-56
2022/10/18 07:13:02;;;;;;;7.25;3.28;;;;;;;;;;5097408;28;20396;-56
2022/10/18 07:15:28;;;;;;;6.45;3.42;;;;;;;;;;5092026;28;20032;-57
2022/10/18 07:17:53;;;;;;;8.57;3.55;;;;;;;;;;5093047;28;20073;-57
2022/10/18 07:20:18;;;;;;;9.90;2.95;;;;;;;;;;5098729;28;20020;-58
2022/10/18 07:22:43;;;;;;;6.35;2.90;;;;;;;;;;5086171;28;20478;-58
2022/10/18 07:25:09;;;;;;;10.18;2.63;;;;;;;;;;5084629;28;20286;-58
2022/10/18 07:27:37;;;;;;;5.07;2.85;;;;;;;;;;5091327;28;20028;-58
2022/10/18 07:30:04;;;;;;;6.78;2.97;;;;;;;;;;5093600;28;20143;-57
2022/10/18 07:32:29;;;;;;;7.13;3.13;;;;;;;;;;5104495;27;20027;-57
2022/10/18 07:34:54;;;;;;;8.73;2.92;;;;;;;;;;5093767;28;20312;-58
2022/10/18 07:37:20;;;;;;;9.00;3.15;;;;;;;;;;5091195;28;20440;-58
2022/10/18 07:39:45;;;;;;;7.22;3.05;;;;;;;;;;5088378;28;20489;-57
2022/10/18 07:42:10;;;;;;;6.95;3.00;;;;;;;;;;5091517;28;20030;-57
2022/10/18 07:44:35;;;;;;;6.03;2.95;;;;;;;;;;5091414;28;20052;-57
2022/10/18 07:47:01;;;;;;;7.85;3.10;;;;;;;;;;5088873;28;20078;-57
2022/10/18 07:49:26;;;;;;;6.57;3.13;;;;;;;;;;5092726;28;20696;-58
2022/10/18 07:51:51;;;;;;;9.43;2.88;;;;;;;;;;5087608;28;20024;-57
2022/10/18 07:54:17;;;;;;;5.40;2.90;;;;;;;;;;5096227;28;20031;-57
2022/10/18 07:56:42;;;;;;;5.97;2.90;;;;;;;;;;5094246;28;20043;-55
2022/10/18 07:59:07;;;;;;;7.03;4.07;;;;;;;;;;5089478;28;20029;-57
2022/10/18 08:01:32;;;;;;;6.63;2.75;;;;;;;;;;5084274;28;20027;-57
2022/10/18 08:03:59;;;;;;;7.45;2.85;;;;;;;;;;5088611;28;20040;-57
2022/10/18 08:06:25;;;;;;;3.65;2.58;;;;;;;;;;5092103;28;20044;-57
2022/10/18 08:08:51;;;;;;;8.45;2.70;;;;;;;;;;5082300;28;20062;-58
2022/10/18 08:11:17;;;;;;;9.02;3.20;;;;;;;;;;5087502;28;20035;-57
2022/10/18 08:13:42;;;;;;;5.15;3.20;;;;;;;;;;5089556;28;20020;-57
2022/10/18 08:16:08;;;;;;;3.97;2.85;;;;;;;;;;5088338;28;20403;-58
2022/10/18 08:18:33;;;;;;;4.38;2.90;;;;;;;;;;5086702;28;20024;-57
2022/10/18 08:20:59;;;;;;;5.55;3.50;;;;;;;;;;5084838;28;20385;-57
2022/10/18 08:23:24;;;;;;;10.30;3.67;;;;;;;;;;5083524;28;20138;-57
2022/10/18 08:25:49;;;;;;;5.15;3.78;;;;;;;;;;5097894;28;20020;-57
2022/10/18 08:28:16;;;;;;;6.57;3.10;;;;;;;;;;5094345;28;20023;-57
2022/10/18 08:30:41;;;;;;;6.47;3.38;;;;;;;;;;5092433;28;20035;-57
2022/10/18 08:33:06;;;;;;;5.53;3.38;;;;;;;;;;5094987;28;20027;-57
2022/10/18 08:35:32;;;;;;;5.70;3.40;;;;;;;;;;5094941;28;20423;-57
2022/10/18 08:37:58;;;;;;;6.85;4.22;;;;;;;;;;5089774;28;20043;-56
2022/10/18 08:40:25;;;;;;;6.75;3.40;;;;;;;;;;5089598;28;20070;-56
2022/10/18 08:42:59;;;;;;;7.75;3.75;;;;;;;;;;5088317;28;20032;-56
2022/10/18 08:45:24;;;;;;;14.13;3.65;;;;;;;;;;5096865;28;20064;-58
2022/10/18 08:47:52;;;;;;;5.32;3.50;;;;;;;;;;5090543;28;20020;-56
2022/10/18 08:50:19;;;;;;;5.22;3.10;;;;;;;;;;5088448;28;20505;-56
2022/10/18 08:52:50;;;;;;;8.18;3.35;;;;;;;;;;5091706;28;20015;-56
2022/10/18 08:55:15;;;;;;;10.60;3.47;;;;;;;;;;5089384;28;20021;-56
2022/10/18 08:57:40;;;;;;;8.57;2.95;;;;;;;;;;5091965;28;20043;-59
2022/10/18 09:00:22;;;;;;;5.25;2.60;;;;;;;;;;5097856;28;20020;-56
2022/10/18 09:03:05;;;;;;;7.28;2.78;;;;;;;;;;5087868;28;20040;-57
2022/10/18 09:05:57;;;;;;;6.93;2.65;;;;;;;;;;5082878;28;20052;-58
2022/10/18 09:08:48;;;;;;;5.47;2.75;;;;;;;;;;5082701;28;20412;-59
2022/10/18 09:11:32;;;;;;;6.65;2.83;;;;;;;;;;5064568;28;20027;-58
2022/10/18 09:14:16;;;;;;;5.93;3.35;;;;;;;;;;5087133;28;20467;-59
2022/10/18 09:16:56;;;;;;;8.10;3.00;;;;;;;;;;5086617;28;20032;-57
2022/10/18 09:19:37;;;;;;;8.20;3.13;;;;;;;;;;5081498;28;20019;-56
2022/10/18 09:22:08;;;;;;;6.05;3.03;;;;;;;;;;5077836;28;20024;-56
2022/10/18 09:24:38;;;;;;;5.60;2.40;;;;;;;;;;5085596;28;20115;-58
2022/10/18 09:27:16;;;;;;;4.93;2.60;;;;;;;;;;5078693;28;20480;-56
2022/10/18 09:29:48;;;;;;;7.95;2.78;;;;;;;;;;5091276;28;20102;-58
2022/10/18 09:32:13;;;;;;;8.35;2.33;;;;;;;;;;5091157;28;20023;-58
2022/10/18 09:34:41;;;;;;;3.15;2.08;;;;;;;;;;5094072;28;20016;-56
2022/10/18 09:37:13;;;;;;;4.53;2.05;;;;;;;;;;5090613;28;20039;-56
2022/10/18 09:39:38;;;;;;;6.30;2.00;;;;;;;;;;5090489;28;20024;-58
2022/10/18 09:42:30;;;;;;;5.07;1.90;;;;;;;;;;5091113;28;20034;-56
2022/10/18 09:44:59;;;;;;;6.53;2.10;;;;;;;;;;5082449;28;20138;-56
2022/10/18 09:47:35;;;;;;;5.80;2.20;;;;;;;;;;5073534;28;20020;-58
2022/10/18 09:50:01;;;;;;;3.80;2.20;;;;;;;;;;5086679;28;20031;-56
2022/10/18 09:52:29;;;;;;;11.48;2.47;;;;;;;;;;5092057;28;20476;-58
2022/10/18 09:54:55;;;;;;;5.18;2.15;;;;;;;;;;5095969;28;20423;-59
2022/10/18 09:57:34;;;;;;;7.13;2.38;;;;;;;;;;5088158;28;20035;-58
2022/10/18 09:59:59;;;;;;;6.67;2.07;;;;;;;;;;5079091;28;20147;-58
2022/10/18 10:02:24;;;;;;;8.68;2.20;;;;;;;;;;5091707;28;20355;-58
2022/10/18 10:04:50;;;;;;;4.38;1.77;;;;;;;;;;5082999;28;20048;-58
2022/10/18 10:07:16;;;;;;;3.17;1.90;;;;;;;;;;5075662;28;20071;-58
2022/10/18 10:10:00;;;;;;;8.40;2.25;;;;;;;;;;5075302;28;20427;-58
2022/10/18 10:12:44;;;;;;;11.93;3.20;;;;;;;;;;5087966;28;20389;-58
2022/10/18 10:15:17;;;;;;;6.70;2.47;;;;;;;;;;5096573;28;20537;-58
2022/10/18 10:17:43;;;;;;;5.15;2.20;;;;;;;;;;5082185;28;20024;-58
2022/10/18 10:20:14;;;;;;;6.32;1.85;;;;;;;;;;5090680;28;20028;-58
2022/10/18 10:22:39;;;;;;;5.03;2.00;;;;;;;;;;5086539;28;20081;-58
2022/10/18 10:25:05;;;;;;;5.80;2.10;;;;;;;;;;5083162;28;20028;-58
2022/10/18 10:27:31;;;;;;;5.15;1.90;;;;;;;;;;5086610;28;20099;-58
2022/10/18 10:29:57;;;;;;;5.20;2.45;;;;;;;;;;5087590;28;20565;-58
2022/10/18 10:32:24;;;;;;;13.20;2.75;;;;;;;;;;5088063;28;20473;-58
2022/10/18 10:34:49;;;;;;;5.93;2.20;;;;;;;;;;5084717;28;20023;-58
2022/10/18 10:37:21;;;;;;;7.65;2.40;;;;;;;;;;5088418;28;20378;-58
2022/10/18 10:39:49;;;;;;;3.42;2.20;;;;;;;;;;5079334;28;20021;-58
2022/10/18 10:42:15;;;;;;;4.65;2.45;;;;;;;;;;5098084;28;20696;-58
2022/10/18 10:44:40;;;;;;;4.05;2.30;;;;;;;;;;5087482;28;20055;-58
2022/10/18 10:47:05;;;;;;;8.43;2.65;;;;;;;;;;5068034;28;20064;-58
2022/10/18 10:49:33;;;;;;;3.50;2.33;;;;;;;;;;5077065;28;20058;-58
2022/10/18 10:51:59;;;;;;;6.88;2.90;;;;;;;;;;5085570;28;20119;-58
2022/10/18 10:54:25;;;;;;;6.40;2.85;;;;;;;;;;5091481;28;20424;-58
2022/10/18 10:56:53;;;;;;;6.28;2.40;;;;;;;;;;5088942;28;20071;-58
2022/10/18 10:59:19;;;;;;;5.10;2.42;;;;;;;;;;5079008;28;20154;-58
2022/10/18 11:01:46;;;;;;;4.13;2.30;;;;;;;;;;5088555;28;20480;-58
2022/10/18 11:04:22;;;;;;;4.30;2.38;;;;;;;;;;5084026;28;20208;-58
2022/10/18 11:06:52;;;;;;;5.65;2.50;;;;;;;;;;5090533;28;20039;-58
2022/10/18 11:09:37;;;;;;;13.25;3.10;;;;;;;;;;5078975;28;20016;-58
2022/10/18 11:12:11;;;;;;;6.00;2.67;;;;;;;;;;5085354;28;20027;-58
2022/10/18 11:14:37;;;;;;;6.35;2.80;;;;;;;;;;5082150;28;20028;-58
2022/10/18 11:17:15;;;;;;;7.85;3.05;;;;;;;;;;5078826;28;20058;-58
2022/10/18 11:19:47;;;;;;;3.92;2.63;;;;;;;;;;5082812;28;20020;-58
2022/10/18 11:22:14;;;;;;;5.68;2.90;;;;;;;;;;5096949;28;20016;-57
2022/10/18 11:24:39;;;;;;;5.47;3.13;;;;;;;;;;5086604;28;20036;-58
2022/10/18 11:27:06;;;;;;;13.65;2.83;;;;;;;;;;5092709;28;20493;-58
2022/10/18 11:29:34;;;;;;;8.15;3.35;;;;;;;;;;5105770;27;20114;-58
2022/10/18 11:32:18;;;;;;;7.50;3.00;;;;;;;;;;5091748;28;20497;-58
2022/10/18 11:34:46;;;;;;;5.43;3.17;;;;;;;;;;5088423;28;20028;-57
2022/10/18 11:37:30;;;;;;;5.15;3.50;;;;;;;;;;5088671;28;20435;-57
2022/10/18 11:39:58;;;;;;;6.95;4.05;;;;;;;;;;5086083;28;20560;-58
2022/10/18 11:42:29;;;;;;;7.72;3.65;;;;;;;;;;5078966;28;20024;-58
2022/10/18 11:44:58;;;;;;;6.57;3.30;;;;;;;;;;5077605;28;20012;-58
2022/10/18 11:47:42;;;;;;;8.43;3.40;;;;;;;;;;5083719;28;20032;-58
2022/10/18 11:50:10;;;;;;;7.07;3.88;;;;;;;;;;5099387;28;20029;-58
2022/10/18 11:52:39;;;;;;;6.07;3.85;;;;;;;;;;5083258;28;20023;-57
2022/10/18 11:55:09;;;;;;;10.05;3.60;;;;;;;;;;5086162;28;20052;-58
2022/10/18 11:57:53;;;;;;;8.95;3.60;;;;;;;;;;5093737;28;20038;-57
2022/10/18 12:00:33;;;;;;;8.38;3.90;;;;;;;;;;5084497;28;20068;-57
2022/10/18 12:03:37;;;;;;;9.35;4.03;;;;;;;;;;5073224;28;20028;-58
2022/10/18 12:06:04;;;;;;;7.38;3.85;;;;;;;;;;5020275;28;20123;-58
2022/10/18 12:08:36;;;;;;;9.00;4.15;;;;;;;;;;5013228;28;20018;-57
2022/10/18 12:11:06;;;;;;;6.75;4.05;;;;;;;;;;5056235;28;20097;-57
2022/10/18 12:13:52;;;;;;;6.15;4.18;;;;;;;;;;5089776;28;20039;-58
2022/10/18 12:16:18;;;;;;;9.43;4.57;;;;;;;;;;5081420;28;20028;-58
2022/10/18 12:18:46;;;;;;;8.43;4.40;;;;;;;;;;5087197;28;20527;-57
2022/10/18 12:21:11;;;;;;;8.65;4.22;;;;;;;;;;5087875;28;20054;-58
2022/10/18 12:23:41;;;;;;;10.15;3.78;;;;;;;;;;5081645;28;20016;-57
2022/10/18 12:26:07;;;;;;;7.85;3.55;;;;;;;;;;5089624;28;20119;-57
2022/10/18 12:28:47;;;;;;;6.43;3.25;;;;;;;;;;5082418;28;20536;-57
2022/10/18 12:31:13;;;;;;;6.10;3.33;;;;;;;;;;5087136;28;20015;-57
2022/10/18 12:33:39;;;;;;;5.88;3.42;;;;;;;;;;5087704;28;20068;-57
2022/10/18 12:36:13;;;;;;;6.28;3.10;;;;;;;;;;5092911;28;20026;-56
2022/10/18 12:38:41;;;;;;;8.23;3.50;;;;;;;;;;5083786;28;20035;-56
2022/10/18 12:41:09;;;;;;;5.15;3.20;;;;;;;;;;5085359;28;20474;-56
2022/10/18 12:43:37;;;;;;;5.78;3.50;;;;;;;;;;5088908;28;20028;-56
2022/10/18 12:46:03;;;;;;;5.00;3.30;;;;;;;;;;5083973;28;20035;-59
2022/10/18 12:48:31;;;;;;;5.32;3.40;;;;;;;;;;5094251;28;20355;-58
2022/10/18 12:50:58;;;;;;;6.05;3.55;;;;;;;;;;5087885;28;20035;-58
2022/10/18 12:53:25;;;;;;;4.32;3.35;;;;;;;;;;5084138;28;20028;-58
2022/10/18 12:55:51;;;;;;;4.93;3.47;;;;;;;;;;5079501;28;20028;-57
2022/10/18 12:58:20;;;;;;;5.75;3.53;;;;;;;;;;5086788;28;20031;-57
2022/10/18 13:00:46;;;;;;;6.43;3.80;;;;;;;;;;5094247;28;20481;-57
2022/10/18 13:03:18;;;;;;;7.05;4.00;;;;;;;;;;5091224;28;20331;-58
2022/10/18 13:05:46;;;;;;;6.82;4.07;;;;;;;;;;5087521;28;20044;-57
2022/10/18 13:08:26;;;;;;;6.80;3.63;;;;;;;;;;5085845;28;20016;-57
2022/10/18 13:11:07;;;;;;;7.28;4.25;;;;;;;;;;5082260;28;20021;-57
2022/10/18 13:13:36;;;;;;;7.57;4.85;;;;;;;;;;5081803;28;20020;-57
2022/10/18 13:16:02;;;;;;;8.27;5.18;;;;;;;;;;5091029;28;20078;-58
2022/10/18 13:18:34;;;;;;;9.10;5.13;;;;;;;;;;5094035;28;20020;-57
2022/10/18 13:21:10;;;;;;;9.90;5.18;;;;;;;;;;5090951;28;20147;-58
2022/10/18 13:23:38;;;;;;;11.75;5.38;;;;;;;;;;5091099;28;20023;-57
2022/10/18 13:26:18;;;;;;;11.55;6.45;;;;;;;;;;5079200;28;20004;-58
2022/10/18 13:28:44;;;;;;;9.70;6.15;;;;;;;;;;5089427;28;20099;-58
2022/10/18 13:31:22;;;;;;;11.68;7.43;;;;;;;;;;5090874;28;20172;-57
2022/10/18 13:33:48;;;;;;;18.13;7.95;;;;;;;;;;5081964;28;20437;-58
2022/10/18 13:36:16;;;;;;;16.35;8.13;;;;;;;;;;5083326;28;20021;-57
2022/10/18 13:38:41;;;;;;;16.52;9.02;;;;;;;;;;5082384;28;20086;-57
2022/10/18 13:41:10;;;;;;;17.75;9.15;;;;;;;;;;5086307;28;20023;-57
2022/10/18 13:43:51;;;;;;;15.03;8.63;;;;;;;;;;5088012;28;20115;-55
2022/10/18 13:46:32;;;;;;;24.15;10.43;;;;;;;;;;5086168;28;20051;-57
2022/10/18 13:48:58;;;;;;;15.43;9.23;;;;;;;;;;5089919;28;20381;-57
2022/10/18 13:51:23;;;;;;;16.15;8.80;;;;;;;;;;5088942;28;20028;-58
2022/10/18 13:53:48;;;;;;;17.88;9.15;;;;;;;;;;5092212;28;20527;-58
2022/10/18 13:56:17;;;;;;;13.98;9.30;;;;;;;;;;5085490;28;20462;-58
2022/10/18 13:58:46;;;;;;;36.75;10.00;;;;;;;;;;5087226;28;20110;-57
2022/10/18 14:01:14;;;;;;;14.25;8.70;;;;;;;;;;5081781;28;20043;-58
2022/10/18 14:03:40;;;;;;;14.50;8.48;;;;;;;;;;5086827;28;20012;-58
2022/10/18 14:06:09;;;;;;;15.80;8.75;;;;;;;;;;5091333;28;20051;-57
2022/10/18 14:08:36;;;;;;;13.30;9.32;;;;;;;;;;5078529;28;20024;-57
2022/10/18 14:11:13;;;;;;;15.63;8.75;;;;;;;;;;5086132;28;20031;-57
2022/10/18 14:13:45;;;;;;;17.55;9.05;;;;;;;;;;5084614;28;20205;-57
2022/10/18 14:16:28;;;;;;;16.77;9.25;;;;;;;;;;5089169;28;20042;-57
2022/10/18 14:18:55;;;;;;;16.38;10.10;;;;;;;;;;5086822;28;20360;-57
2022/10/18 14:21:22;;;;;;;14.77;9.57;;;;;;;;;;5091574;28;20122;-57
2022/10/18 14:23:47;;;;;;;19.23;10.45;;;;;;;;;;5082168;28;20016;-57
2022/10/18 14:26:13;;;;;;;18.08;9.93;;;;;;;;;;5084793;28;20531;-57
2022/10/18 14:28:41;;;;;;;15.55;10.18;;;;;;;;;;5091063;28;20032;-57
2022/10/18 14:31:14;;;;;;;15.60;8.65;;;;;;;;;;5086281;28;20024;-58
2022/10/18 14:33:51;;;;;;;15.75;10.10;;;;;;;;;;5071596;28;20020;-57
2022/10/18 14:36:16;;;;;;;15.07;9.98;;;;;;;;;;5081237;28;20624;-57